createdAt,value
2023-03-20T00:00:57.881Z,5.18
2023-03-20T00:03:24.205Z,5.00
2023-03-20T00:05:51.475Z,5.28
2023-03-20T00:08:17.780Z,5.03
2023-03-20T00:10:45.595Z,5.47
2023-03-20T00:13:19.194Z,5.57
2023-03-20T00:15:45.709Z,5.45
2023-03-20T00:18:14.207Z,5.20
2023-03-20T00:20:40.441Z,5.10
2023-03-20T00:23:06.682Z,5.05
2023-03-20T00:25:34.127Z,4.90
2023-03-20T00:28:00.709Z,5.05
2023-03-20T00:30:29.114Z,5.15
2023-03-20T00:32:56.830Z,5.90
2023-03-20T00:35:25.013Z,5.57
2023-03-20T00:37:51.864Z,4.53
2023-03-20T00:40:18.607Z,5.60
2023-03-20T00:42:46.552Z,5.32
2023-03-20T00:45:17.791Z,5.18
2023-03-20T00:47:44.343Z,5.38
2023-03-20T00:50:15.501Z,5.38
2023-03-20T00:52:41.911Z,4.95
2023-03-20T00:55:08.222Z,5.57
2023-03-20T00:57:38.712Z,4.93
2023-03-20T01:00:05.277Z,5.00
2023-03-20T01:02:31.749Z,4.88
2023-03-20T01:04:58.443Z,5.63
2023-03-20T01:07:24.851Z,5.38
2023-03-20T01:09:51.236Z,4.63
2023-03-20T01:12:17.555Z,4.70
2023-03-20T01:14:44.017Z,5.25
2023-03-20T01:17:20.752Z,5.50
2023-03-20T01:19:47.646Z,5.68
2023-03-20T01:22:14.258Z,5.20
2023-03-20T01:24:40.815Z,5.57
2023-03-20T01:27:17.567Z,5.03
2023-03-20T01:29:44.168Z,5.60
2023-03-20T01:32:17.450Z,5.40
2023-03-20T01:34:44.265Z,5.47
2023-03-20T01:37:31.102Z,5.15
2023-03-20T01:39:57.801Z,5.22
2023-03-20T01:42:24.738Z,5.20
2023-03-20T01:44:51.688Z,5.15
2023-03-20T01:47:19.786Z,4.90
2023-03-20T01:50:22.620Z,5.13
2023-03-20T01:52:50.293Z,4.70
2023-03-20T01:55:16.842Z,4.50
2023-03-20T01:57:43.201Z,4.68
2023-03-20T02:00:11.707Z,4.60
2023-03-20T02:02:38.841Z,4.10
2023-03-20T02:05:07.397Z,4.45
2023-03-20T02:07:34.437Z,4.40
2023-03-20T02:10:01.491Z,4.28
2023-03-20T02:12:28.206Z,3.83
2023-03-20T02:14:55.002Z,4.40
2023-03-20T02:17:21.505Z,4.05
2023-03-20T02:19:58.263Z,3.70
2023-03-20T02:22:43.257Z,4.10
2023-03-20T02:25:28.376Z,4.32
2023-03-20T02:28:13.443Z,3.83
2023-03-20T02:30:58.834Z,3.80
2023-03-20T02:33:34.198Z,4.05
2023-03-20T02:36:06.536Z,4.13
2023-03-20T02:38:58.599Z,3.90
2023-03-20T02:41:24.888Z,3.83
2023-03-20T02:44:03.255Z,4.00
2023-03-20T02:46:32.697Z,3.30
2023-03-20T02:49:03.252Z,3.60
2023-03-20T02:51:49.834Z,3.47
2023-03-20T02:54:34.776Z,3.55
2023-03-20T02:57:16.351Z,3.45
2023-03-20T03:00:01.535Z,3.45
2023-03-20T03:02:48.154Z,3.83
2023-03-20T03:05:25.700Z,3.97
2023-03-20T03:07:54.571Z,3.20
2023-03-20T03:10:23.022Z,3.45
2023-03-20T03:12:51.762Z,3.22
2023-03-20T03:15:25.320Z,3.33
2023-03-20T03:17:51.938Z,3.35
2023-03-20T03:20:32.545Z,3.40
2023-03-20T03:22:59.206Z,3.40
2023-03-20T03:25:27.551Z,3.00
2023-03-20T03:28:03.860Z,3.70
2023-03-20T03:30:32.839Z,3.38
2023-03-20T03:33:12.118Z,3.55
2023-03-20T03:35:39.170Z,3.60
2023-03-20T03:38:24.861Z,3.45
2023-03-20T03:40:57.223Z,3.25
2023-03-20T03:43:26.650Z,3.63
2023-03-20T03:45:57.905Z,2.97
2023-03-20T03:48:27.304Z,3.65
2023-03-20T03:51:00.355Z,3.55
2023-03-20T03:53:30.374Z,4.00
2023-03-20T03:56:00.329Z,3.92
2023-03-20T03:58:29.077Z,3.65
2023-03-20T04:00:56.964Z,3.45
2023-03-20T04:03:24.955Z,3.60
2023-03-20T04:05:53.112Z,3.53
2023-03-20T04:08:19.363Z,3.78
2023-03-20T04:10:46.030Z,3.75
2023-03-20T04:13:12.304Z,3.72
2023-03-20T04:15:38.641Z,3.30
2023-03-20T04:18:05.280Z,3.47
2023-03-20T04:20:31.642Z,3.58
2023-03-20T04:22:57.964Z,3.90
2023-03-20T04:25:24.921Z,3.67
2023-03-20T04:27:51.326Z,3.42
2023-03-20T04:30:17.795Z,3.13
2023-03-20T04:32:44.348Z,3.65
2023-03-20T04:35:10.681Z,4.15
2023-03-20T04:37:37.133Z,3.70
2023-03-20T04:40:04.403Z,3.40
2023-03-20T04:42:30.638Z,3.70
2023-03-20T04:44:56.898Z,3.50
2023-03-20T04:47:23.163Z,3.30
2023-03-20T04:49:49.525Z,3.92
2023-03-20T04:52:16.292Z,3.55
2023-03-20T04:54:42.604Z,3.22
2023-03-20T04:57:08.960Z,3.88
2023-03-20T04:59:35.495Z,3.90
2023-03-20T05:02:01.815Z,3.17
2023-03-20T05:04:28.194Z,3.50
2023-03-20T05:06:54.469Z,3.92
2023-03-20T05:09:20.898Z,3.60
2023-03-20T05:11:47.159Z,3.40
2023-03-20T05:14:13.470Z,3.83
2023-03-20T05:16:39.760Z,3.63
2023-03-20T05:19:06.095Z,3.45
2023-03-20T05:21:32.605Z,3.60
2023-03-20T05:23:58.834Z,3.25
2023-03-20T05:26:25.242Z,3.50
2023-03-20T05:28:51.573Z,3.40
2023-03-20T05:31:17.853Z,3.28
2023-03-20T05:33:44.148Z,3.70
2023-03-20T05:36:10.775Z,3.25
2023-03-20T05:38:37.129Z,3.70
2023-03-20T05:41:03.468Z,3.80
2023-03-20T05:43:29.731Z,3.33
2023-03-20T05:45:56.370Z,3.72
2023-03-20T05:48:23.043Z,3.80
2023-03-20T05:50:49.342Z,3.45
2023-03-20T05:53:16.235Z,3.40
2023-03-20T05:55:44.596Z,3.45
2023-03-20T05:58:11.825Z,3.40
2023-03-20T06:00:38.285Z,3.50
2023-03-20T06:03:06.830Z,3.92
2023-03-20T06:05:34.289Z,3.42
2023-03-20T06:08:00.966Z,3.30
2023-03-20T06:10:27.935Z,3.55
2023-03-20T06:12:54.256Z,3.50
2023-03-20T06:15:20.809Z,3.40
2023-03-20T06:17:47.136Z,4.18
2023-03-20T06:20:13.570Z,3.33
2023-03-20T06:22:40.056Z,4.00
2023-03-20T06:25:06.754Z,3.78
2023-03-20T06:27:33.022Z,4.03
2023-03-20T06:29:59.378Z,4.22
2023-03-20T06:32:25.731Z,3.85
2023-03-20T06:34:52.133Z,3.60
2023-03-20T06:37:18.962Z,4.40
2023-03-20T06:39:45.249Z,4.22
2023-03-20T06:42:15.076Z,4.03
2023-03-20T06:44:42.433Z,3.67
2023-03-20T06:47:08.792Z,4.20
2023-03-20T06:49:35.389Z,3.90
2023-03-20T06:52:01.696Z,4.03
2023-03-20T06:54:27.968Z,3.90
2023-03-20T06:56:54.263Z,4.07
2023-03-20T06:59:20.606Z,4.22
2023-03-20T07:01:47.215Z,3.95
2023-03-20T07:04:14.728Z,3.47
2023-03-20T07:06:41.102Z,4.00
2023-03-20T07:09:07.795Z,3.30
2023-03-20T07:11:34.212Z,3.80
2023-03-20T07:14:01.482Z,3.72
2023-03-20T07:16:27.856Z,4.00
2023-03-20T07:18:54.179Z,3.95
2023-03-20T07:21:21.752Z,4.15
2023-03-20T07:23:48.145Z,4.03
2023-03-20T07:26:14.794Z,3.83
2023-03-20T07:28:41.126Z,3.92
2023-03-20T07:31:07.526Z,4.13
2023-03-20T07:33:33.858Z,4.32
2023-03-20T07:36:00.420Z,3.58
2023-03-20T07:38:26.801Z,4.20
2023-03-20T07:40:53.827Z,4.28
2023-03-20T07:43:20.195Z,3.70
2023-03-20T07:45:47.737Z,3.85
2023-03-20T07:48:14.101Z,3.85
2023-03-20T07:50:40.562Z,3.65
2023-03-20T07:53:07.822Z,3.83
2023-03-20T07:55:34.236Z,3.70
2023-03-20T07:58:00.871Z,4.35
2023-03-20T08:00:28.342Z,4.20
2023-03-20T08:02:56.900Z,3.97
2023-03-20T08:05:26.229Z,3.88
2023-03-20T08:07:52.877Z,4.07
2023-03-20T08:10:19.329Z,4.65
2023-03-20T08:12:45.780Z,3.80
2023-03-20T08:15:12.106Z,3.75
2023-03-20T08:17:38.622Z,4.68
2023-03-20T08:20:05.164Z,3.72
2023-03-20T08:22:31.572Z,3.53
2023-03-20T08:24:58.029Z,3.70
2023-03-20T08:27:24.904Z,3.63
2023-03-20T08:29:51.670Z,3.53
2023-03-20T08:33:04.281Z,3.63
2023-03-20T08:35:33.613Z,3.75
2023-03-20T08:38:00.321Z,3.78
2023-03-20T08:40:26.609Z,3.83
2023-03-20T08:42:52.915Z,3.85
2023-03-20T08:45:19.497Z,4.07
2023-03-20T08:47:49.042Z,4.03
2023-03-20T08:50:16.067Z,3.65
2023-03-20T08:52:43.993Z,3.90
2023-03-20T08:55:13.964Z,3.83
2023-03-20T08:57:40.786Z,3.75
2023-03-20T09:00:08.178Z,3.85
2023-03-20T09:02:34.570Z,3.75
2023-03-20T09:05:01.328Z,3.90
2023-03-20T09:07:27.638Z,4.03
2023-03-20T09:09:53.936Z,3.17
2023-03-20T09:12:20.461Z,3.40
2023-03-20T09:14:46.778Z,3.90
2023-03-20T09:17:13.090Z,2.95
2023-03-20T09:19:42.498Z,3.45
2023-03-20T09:22:09.016Z,2.97
2023-03-20T09:24:35.480Z,2.88
2023-03-20T09:27:03.627Z,3.10
2023-03-20T09:29:30.045Z,2.90
2023-03-20T09:31:56.429Z,2.60
2023-03-20T09:34:22.895Z,3.28
2023-03-20T09:36:49.236Z,3.33
2023-03-20T09:39:15.803Z,2.63
2023-03-20T09:41:56.758Z,2.78
2023-03-20T09:44:42.456Z,2.53
2023-03-20T09:47:19.953Z,2.70
2023-03-20T09:49:47.276Z,2.47
2023-03-20T09:52:13.544Z,2.70
2023-03-20T09:54:53.681Z,2.55
2023-03-20T09:57:22.968Z,2.50
2023-03-20T09:59:50.343Z,2.35
2023-03-20T10:02:24.438Z,3.08
2023-03-20T10:04:53.119Z,2.67
2023-03-20T10:07:20.391Z,2.30
2023-03-20T10:09:47.087Z,1.95
2023-03-20T10:12:32.253Z,2.60
2023-03-20T10:15:17.205Z,2.45
2023-03-20T10:17:52.491Z,2.15
2023-03-20T10:20:25.602Z,2.25
2023-03-20T10:22:55.727Z,2.42
2023-03-20T10:25:30.810Z,2.10
2023-03-20T10:28:01.496Z,2.28
2023-03-20T10:30:39.037Z,2.13
2023-03-20T10:33:27.025Z,2.53
2023-03-20T10:36:09.026Z,2.13
2023-03-20T10:38:47.484Z,2.83
2023-03-20T10:41:16.827Z,2.47
2023-03-20T10:43:44.117Z,2.05
2023-03-20T10:46:13.290Z,2.33
2023-03-20T10:48:47.856Z,2.38
2023-03-20T10:51:16.443Z,2.00
2023-03-20T10:53:53.848Z,2.30
2023-03-20T10:56:26.826Z,2.20
2023-03-20T10:58:57.385Z,2.25
2023-03-20T11:01:23.720Z,2.30
2023-03-20T11:03:50.099Z,2.40
2023-03-20T11:06:22.809Z,2.80
2023-03-20T11:08:50.882Z,2.28
2023-03-20T11:11:27.944Z,2.17
2023-03-20T11:13:54.714Z,2.50
2023-03-20T11:16:21.246Z,2.92
2023-03-20T11:18:52.339Z,2.20
2023-03-20T11:21:23.408Z,2.20
2023-03-20T11:23:50.407Z,1.90
2023-03-20T11:26:27.807Z,2.25
2023-03-20T11:28:58.837Z,2.20
2023-03-20T11:31:35.605Z,2.22
2023-03-20T11:34:04.671Z,2.00
2023-03-20T11:36:33.128Z,2.20
2023-03-20T11:39:07.271Z,2.55
2023-03-20T11:41:35.017Z,2.20
2023-03-20T11:44:01.408Z,2.17
2023-03-20T11:46:28.014Z,2.00
2023-03-20T11:49:05.886Z,2.20
2023-03-20T11:51:35.175Z,2.10
2023-03-20T11:54:02.553Z,2.80
2023-03-20T11:56:30.190Z,1.90
2023-03-20T11:58:58.505Z,1.95
2023-03-20T12:01:25.658Z,2.35
2023-03-20T12:03:56.442Z,2.25
2023-03-20T12:06:25.025Z,2.03
2023-03-20T12:08:58.943Z,2.17
2023-03-20T12:11:44.006Z,2.00
2023-03-20T12:14:13.925Z,2.63
2023-03-20T12:16:41.158Z,2.10
2023-03-20T12:19:13.485Z,2.42
2023-03-20T12:21:45.379Z,1.92
2023-03-20T12:24:31.576Z,2.28
2023-03-20T12:27:09.566Z,2.40
2023-03-20T12:29:43.164Z,2.25
2023-03-20T12:32:16.820Z,2.10
2023-03-20T12:34:48.625Z,2.45
2023-03-20T12:37:18.210Z,2.67
2023-03-20T12:39:55.368Z,2.50
2023-03-20T12:42:40.739Z,2.40
2023-03-20T12:45:22.074Z,2.15
2023-03-20T12:47:57.121Z,2.30
2023-03-20T12:50:26.280Z,2.47
2023-03-20T12:53:00.495Z,2.42
2023-03-20T12:55:34.675Z,2.50
2023-03-20T12:58:06.974Z,2.00
2023-03-20T13:00:58.259Z,2.30
2023-03-20T13:03:48.324Z,2.78
2023-03-20T13:06:17.441Z,2.53
2023-03-20T13:08:49.452Z,2.47
2023-03-20T13:11:36.685Z,2.50
2023-03-20T13:14:13.675Z,2.35
2023-03-20T13:16:51.306Z,2.42
2023-03-20T13:19:50.251Z,2.38
2023-03-20T13:22:25.522Z,2.17
2023-03-20T13:24:56.736Z,2.20
2023-03-20T13:27:28.752Z,2.20
2023-03-20T13:30:16.127Z,2.17
2023-03-20T13:33:05.996Z,2.53
2023-03-20T13:35:51.008Z,2.58
2023-03-20T13:38:22.909Z,2.17
2023-03-20T13:40:53.166Z,2.33
2023-03-20T13:43:54.361Z,2.25
2023-03-20T13:46:28.747Z,2.22
2023-03-20T13:48:55.838Z,2.00
2023-03-20T13:51:22.454Z,2.60
2023-03-20T13:53:55.046Z,2.13
2023-03-20T13:56:40.298Z,2.30
2023-03-20T13:59:09.701Z,2.10
2023-03-20T14:01:56.247Z,1.95
2023-03-20T14:06:58.804Z,2.13
2023-03-20T14:09:26.963Z,2.17
2023-03-20T14:11:59.238Z,2.28
2023-03-20T14:14:27.858Z,1.90
2023-03-20T14:17:01.380Z,2.47
2023-03-20T14:19:28.679Z,1.90
2023-03-20T14:21:55.747Z,2.10
2023-03-20T14:24:23.804Z,1.83
2023-03-20T14:26:52.754Z,2.08
2023-03-20T14:29:20.852Z,2.33
2023-03-20T14:31:52.225Z,1.70
2023-03-20T14:34:24.519Z,1.55
2023-03-20T14:36:50.814Z,2.65
2023-03-20T14:39:30.542Z,2.85
2023-03-20T14:42:15.910Z,2.13
2023-03-20T14:44:48.540Z,1.88
2023-03-20T14:47:41.212Z,1.90
2023-03-20T14:50:16.605Z,2.38
2023-03-20T14:52:53.110Z,2.33
2023-03-20T14:55:19.457Z,1.85
2023-03-20T14:57:56.190Z,1.80
2023-03-20T15:00:24.848Z,2.42
2023-03-20T15:02:52.276Z,2.20
2023-03-20T15:05:24.717Z,2.55
2023-03-20T15:07:52.065Z,2.35
2023-03-20T15:10:19.656Z,2.17
2023-03-20T15:12:46.633Z,2.13
2023-03-20T15:15:26.843Z,2.67
2023-03-20T15:17:53.369Z,1.73
2023-03-20T15:20:24.622Z,2.30
2023-03-20T15:22:58.092Z,2.08
2023-03-20T15:25:44.827Z,2.15
2023-03-20T15:28:18.711Z,2.17
2023-03-20T15:30:48.957Z,1.83
2023-03-20T15:33:17.072Z,2.28
2023-03-20T15:35:43.436Z,1.60
2023-03-20T15:38:12.777Z,2.17
2023-03-20T15:40:50.503Z,1.92
2023-03-20T15:43:32.573Z,1.83
2023-03-20T15:46:16.344Z,2.33
2023-03-20T15:48:47.354Z,2.00
2023-03-20T15:51:14.084Z,2.30
2023-03-20T15:53:40.750Z,2.33
2023-03-20T15:56:19.457Z,1.80
2023-03-20T15:58:47.144Z,1.58
2023-03-20T16:01:21.320Z,1.85
2023-03-20T16:03:48.207Z,2.20
2023-03-20T16:06:18.245Z,2.15
2023-03-20T16:08:46.786Z,2.42
2023-03-20T16:11:14.094Z,2.10
2023-03-20T16:13:46.490Z,2.30
2023-03-20T16:16:17.553Z,2.08
2023-03-20T16:18:47.782Z,2.20
2023-03-20T16:21:34.391Z,2.20
2023-03-20T16:24:05.644Z,2.25
2023-03-20T16:26:36.517Z,2.45
2023-03-20T16:29:02.902Z,2.05
2023-03-20T16:31:31.730Z,2.25
2023-03-20T16:33:59.166Z,2.60
2023-03-20T16:36:29.837Z,2.05
2023-03-20T16:38:56.210Z,2.13
2023-03-20T16:41:22.475Z,2.28
2023-03-20T16:43:49.786Z,2.70
2023-03-20T16:46:21.667Z,2.38
2023-03-20T16:48:48.924Z,2.58
2023-03-20T16:51:26.407Z,2.20
2023-03-20T16:54:01.813Z,2.30
2023-03-20T16:56:39.311Z,1.88
2023-03-20T16:59:16.498Z,2.25
2023-03-20T17:01:43.682Z,2.13
2023-03-20T17:04:19.345Z,2.30
2023-03-20T17:06:50.331Z,2.55
2023-03-20T17:09:18.434Z,2.17
2023-03-20T17:11:46.081Z,2.00
2023-03-20T17:14:12.370Z,1.90
2023-03-20T17:16:40.171Z,2.95
2023-03-20T17:19:10.595Z,2.00
2023-03-20T17:21:37.050Z,1.80
2023-03-20T17:24:03.488Z,2.15
2023-03-20T17:26:30.729Z,2.17
2023-03-20T17:28:57.837Z,1.88
2023-03-20T17:31:24.165Z,2.15
2023-03-20T17:33:50.437Z,1.75
2023-03-20T17:36:27.502Z,1.95
2023-03-20T17:38:54.669Z,1.73
2023-03-20T17:41:21.242Z,1.90
2023-03-20T17:43:47.632Z,1.98
2023-03-20T17:46:21.197Z,1.75
2023-03-20T17:48:48.841Z,2.15
2023-03-20T17:51:15.181Z,1.67
2023-03-20T17:53:41.511Z,2.20
2023-03-20T17:56:15.299Z,2.25
2023-03-20T17:58:44.602Z,2.08
2023-03-20T18:01:11.704Z,2.42
2023-03-20T18:03:38.225Z,2.53
2023-03-20T18:06:05.102Z,2.30
2023-03-20T18:08:31.427Z,2.00
2023-03-20T18:10:57.824Z,2.83
2023-03-20T18:13:24.993Z,2.35
2023-03-20T18:15:52.179Z,2.47
2023-03-20T18:18:19.101Z,2.58
2023-03-20T18:20:46.975Z,2.30
2023-03-20T18:23:13.700Z,2.42
2023-03-20T18:25:40.099Z,2.13
2023-03-20T18:28:07.516Z,2.20
2023-03-20T18:30:35.382Z,2.22
2023-03-20T18:33:02.397Z,2.58
2023-03-20T18:35:28.833Z,2.65
2023-03-20T18:37:55.354Z,2.75
2023-03-20T18:40:25.953Z,2.65
2023-03-20T18:42:53.465Z,2.95
2023-03-20T18:45:20.046Z,4.18
2023-03-20T18:47:46.417Z,3.78
2023-03-20T18:50:21.910Z,4.15
2023-03-20T18:52:48.333Z,3.63
2023-03-20T18:55:14.674Z,4.20
2023-03-20T18:57:44.010Z,4.13
2023-03-20T19:00:30.070Z,4.50
2023-03-20T19:02:56.963Z,5.47
2023-03-20T19:05:24.099Z,5.93
2023-03-20T19:07:50.932Z,4.80
2023-03-20T19:10:25.874Z,5.78
2023-03-20T19:12:52.735Z,6.38
2023-03-20T19:15:22.730Z,5.63
2023-03-20T19:17:52.161Z,5.40
2023-03-20T19:20:27.612Z,6.32
2023-03-20T19:22:53.994Z,5.90
2023-03-20T19:25:20.479Z,6.80
2023-03-20T19:27:46.758Z,5.70
2023-03-20T19:30:16.174Z,5.72
2023-03-20T19:32:43.656Z,5.10
2023-03-20T19:38:00.333Z,5.30
2023-03-20T19:40:43.145Z,5.68
2023-03-20T19:43:16.900Z,5.97
2023-03-20T19:45:52.740Z,5.55
2023-03-20T19:48:20.651Z,5.80
2023-03-20T19:50:47.511Z,4.63
2023-03-20T19:53:24.003Z,5.07
2023-03-20T19:55:50.501Z,5.32
2023-03-20T19:58:17.170Z,4.57
2023-03-20T20:00:57.261Z,4.75
2023-03-20T20:03:30.604Z,4.35
2023-03-20T20:05:57.049Z,5.13
2023-03-20T20:08:38.960Z,4.20
2023-03-20T20:11:11.798Z,4.50
2023-03-20T20:13:53.461Z,5.03
2023-03-20T20:16:24.694Z,5.18
2023-03-20T20:18:50.978Z,4.20
2023-03-20T20:22:10.124Z,3.67
2023-03-20T20:24:03.821Z,4.20
2023-03-20T20:26:31.332Z,4.32
2023-03-20T20:29:01.103Z,4.00
2023-03-20T20:31:28.546Z,4.00
2023-03-20T20:34:22.525Z,4.07
2023-03-20T20:37:29.969Z,4.40
2023-03-20T20:39:27.412Z,3.85
2023-03-20T20:41:53.771Z,3.72
2023-03-20T20:44:20.307Z,3.58
2023-03-20T20:46:46.690Z,3.88
2023-03-20T20:49:19.161Z,3.50
2023-03-20T20:51:46.252Z,3.85
2023-03-20T20:54:12.671Z,3.92
2023-03-20T20:56:39.070Z,3.78
2023-03-20T20:59:05.406Z,3.58
2023-03-20T21:01:31.798Z,4.20
2023-03-20T21:03:58.083Z,3.53
2023-03-20T21:06:38.633Z,3.45
2023-03-20T21:09:10.763Z,3.80
2023-03-20T21:11:37.241Z,3.50
2023-03-20T21:14:03.535Z,4.55
2023-03-20T21:16:32.740Z,3.20
2023-03-20T21:18:59.052Z,4.03
2023-03-20T21:21:25.351Z,3.50
2023-03-20T21:23:51.748Z,4.00
2023-03-20T21:26:18.639Z,4.65
2023-03-20T21:28:45.055Z,3.72
2023-03-20T21:31:24.560Z,3.47
2023-03-20T21:33:54.087Z,3.58
2023-03-20T21:36:20.771Z,3.67
2023-03-20T21:39:08.173Z,3.15
2023-03-20T21:41:34.165Z,3.28
2023-03-20T21:44:01.576Z,4.03
2023-03-20T22:03:11.083Z,3.33
2023-03-20T22:06:23.816Z,2.60
2023-03-20T22:20:16.377Z,3.45
2023-03-20T22:23:19.111Z,3.88
2023-03-20T22:28:34.380Z,3.83
2023-03-20T22:31:37.901Z,2.65
2023-03-20T22:37:07.544Z,2.72
2023-03-20T22:39:45.893Z,2.95
2023-03-20T22:42:35.294Z,3.00
2023-03-20T22:44:58.549Z,2.75
2023-03-20T22:47:17.460Z,3.08
2023-03-20T22:49:43.806Z,3.05
2023-03-20T22:52:24.907Z,3.13
2023-03-20T22:54:55.761Z,3.05
2023-03-20T22:57:26.608Z,2.88
2023-03-20T23:00:00.952Z,3.00
2023-03-20T23:02:27.251Z,3.58
2023-03-20T23:04:54.868Z,2.85
2023-03-20T23:07:21.259Z,2.53
2023-03-20T23:09:48.119Z,3.35
2023-03-20T23:12:14.465Z,2.72
2023-03-20T23:14:45.708Z,2.88
2023-03-20T23:17:12.362Z,3.05
2023-03-20T23:19:47.848Z,2.83
2023-03-20T23:22:16.682Z,2.88
2023-03-20T23:24:42.965Z,2.83
2023-03-20T23:27:09.221Z,2.92
2023-03-20T23:29:35.629Z,2.72
2023-03-20T23:32:02.073Z,2.53
2023-03-20T23:34:28.411Z,2.60
2023-03-20T23:36:54.749Z,2.33
2023-03-20T23:39:21.253Z,2.58
2023-03-20T23:42:14.821Z,3.13
2023-03-20T23:44:34.967Z,2.70
2023-03-20T23:47:11.229Z,2.58
2023-03-20T23:49:41.830Z,2.95
2023-03-20T23:52:08.140Z,2.70
2023-03-20T23:54:34.468Z,2.70
2023-03-20T23:57:00.833Z,3.10
2023-03-20T23:59:29.086Z,2.53
